createdAt,value
2019-01-14T00:00:57.985Z,6.75
2019-01-14T00:03:24.609Z,6.17
2019-01-14T00:05:54.007Z,5.92
2019-01-14T00:08:20.794Z,6.00
2019-01-14T00:10:47.378Z,6.75
2019-01-14T00:13:14.041Z,5.85
2019-01-14T00:15:41.521Z,5.92
2019-01-14T00:18:08.037Z,5.30
2019-01-14T00:20:34.479Z,6.33
2019-01-14T00:23:00.953Z,6.22
2019-01-14T00:25:33.371Z,6.03
2019-01-14T00:28:00.028Z,6.05
2019-01-14T00:30:26.436Z,6.65
2019-01-14T00:32:53.442Z,5.37
2019-01-14T00:35:26.039Z,6.03
2019-01-14T00:37:52.766Z,5.62
2019-01-14T00:40:19.255Z,5.95
2019-01-14T00:42:46.283Z,7.80
2019-01-14T00:45:16.827Z,5.90
2019-01-14T00:47:43.188Z,5.25
2019-01-14T00:50:12.416Z,5.62
2019-01-14T00:52:38.667Z,5.53
2019-01-14T00:55:07.447Z,6.35
2019-01-14T00:57:33.798Z,5.30
2019-01-14T01:00:00.328Z,6.03
2019-01-14T01:02:26.977Z,7.35
2019-01-14T01:04:53.271Z,5.90
2019-01-14T01:07:20.058Z,5.78
2019-01-14T01:09:46.762Z,4.85
2019-01-14T01:12:13.444Z,5.22
2019-01-14T01:14:40.405Z,5.08
2019-01-14T01:17:07.081Z,5.00
2019-01-14T01:19:33.359Z,5.05
2019-01-14T01:22:00.114Z,5.72
2019-01-14T01:24:26.399Z,5.08
2019-01-14T01:26:53.445Z,5.80
2019-01-14T01:29:20.250Z,5.15
2019-01-14T01:31:47.694Z,5.58
2019-01-14T01:34:14.067Z,5.05
2019-01-14T01:36:40.384Z,4.22
2019-01-14T01:39:06.864Z,4.28
2019-01-14T01:41:33.406Z,4.87
2019-01-14T01:43:59.644Z,4.70
2019-01-14T01:46:26.609Z,4.75
2019-01-14T01:49:01.851Z,3.72
2019-01-14T01:51:28.111Z,4.70
2019-01-14T01:53:54.844Z,4.25
2019-01-14T01:56:21.398Z,5.05
2019-01-14T01:58:48.353Z,4.20
2019-01-14T02:01:15.097Z,4.85
2019-01-14T02:03:42.588Z,5.00
2019-01-14T02:06:08.947Z,5.35
2019-01-14T02:08:35.387Z,5.03
2019-01-14T02:11:02.175Z,4.00
2019-01-14T02:13:28.652Z,5.00
2019-01-14T02:15:54.954Z,4.65
2019-01-14T02:18:21.379Z,4.45
2019-01-14T02:20:47.819Z,4.65
2019-01-14T02:23:14.791Z,5.78
2019-01-14T02:25:41.342Z,3.50
2019-01-14T02:28:08.500Z,4.22
2019-01-14T02:30:35.150Z,3.80
2019-01-14T02:33:02.133Z,4.15
2019-01-14T02:35:28.612Z,3.75
2019-01-14T02:37:55.600Z,2.98
2019-01-14T02:40:22.038Z,4.03
2019-01-14T02:42:48.554Z,5.00
2019-01-14T02:45:17.216Z,4.92
2019-01-14T02:47:44.138Z,3.33
2019-01-14T02:50:12.214Z,3.35
2019-01-14T02:52:39.630Z,3.30
2019-01-14T02:55:08.209Z,3.80
2019-01-14T02:57:35.285Z,3.05
2019-01-14T03:00:11.606Z,3.37
2019-01-14T03:02:43.990Z,5.17
2019-01-14T03:05:11.535Z,3.87
2019-01-14T03:07:38.030Z,3.98
2019-01-14T03:10:07.826Z,4.05
2019-01-14T03:12:34.795Z,4.00
2019-01-14T03:15:01.443Z,4.00
2019-01-14T03:17:27.765Z,3.67
2019-01-14T03:19:54.168Z,3.42
2019-01-14T03:22:20.771Z,3.75
2019-01-14T03:24:47.131Z,3.77
2019-01-14T03:27:14.581Z,3.80
2019-01-14T03:29:41.222Z,3.60
2019-01-14T03:32:10.715Z,4.22
2019-01-14T03:34:37.403Z,3.85
2019-01-14T03:37:05.580Z,3.62
2019-01-14T03:39:34.766Z,3.55
2019-01-14T03:42:01.151Z,2.83
2019-01-14T03:44:27.450Z,2.72
2019-01-14T03:46:53.908Z,2.85
2019-01-14T03:49:20.621Z,2.55
2019-01-14T03:51:47.443Z,2.80
2019-01-14T03:54:14.198Z,3.08
2019-01-14T03:56:42.117Z,3.12
2019-01-14T03:59:08.583Z,2.27
2019-01-14T04:01:35.008Z,3.20
2019-01-14T04:04:01.461Z,2.33
2019-01-14T04:06:28.098Z,2.98
2019-01-14T04:08:54.410Z,3.22
2019-01-14T04:11:29.266Z,2.70
2019-01-14T04:13:55.610Z,2.80
2019-01-14T04:16:22.364Z,3.52
2019-01-14T04:18:49.168Z,3.20
2019-01-14T04:21:15.830Z,3.27
2019-01-14T04:23:42.237Z,3.12
2019-01-14T04:26:08.610Z,4.00
2019-01-14T04:28:35.098Z,2.30
2019-01-14T04:31:01.569Z,2.47
2019-01-14T04:33:27.850Z,2.30
2019-01-14T04:35:54.105Z,2.87
2019-01-14T04:38:20.567Z,3.02
2019-01-14T04:40:47.353Z,2.15
2019-01-14T04:43:14.518Z,2.50
2019-01-14T04:45:41.090Z,2.72
2019-01-14T04:48:07.557Z,2.62
2019-01-14T04:50:34.583Z,3.12
2019-01-14T04:53:01.568Z,2.58
2019-01-14T04:55:27.771Z,2.90
2019-01-14T04:57:54.227Z,2.83
2019-01-14T05:00:22.415Z,2.50
2019-01-14T05:02:49.698Z,2.67
2019-01-14T05:05:16.474Z,2.20
2019-01-14T05:07:43.484Z,2.55
2019-01-14T05:10:13.739Z,3.22
2019-01-14T05:12:41.170Z,2.50
2019-01-14T05:15:10.722Z,2.25
2019-01-14T05:17:37.225Z,2.50
2019-01-14T05:20:25.466Z,2.98
2019-01-14T05:22:52.221Z,2.30
2019-01-14T05:25:18.521Z,3.20
2019-01-14T05:27:45.354Z,3.05
2019-01-14T05:30:14.243Z,3.30
2019-01-14T05:32:40.779Z,3.15
2019-01-14T05:35:08.235Z,3.22
2019-01-14T05:37:37.626Z,4.92
2019-01-14T05:40:09.821Z,3.30
2019-01-14T05:42:36.325Z,3.80
2019-01-14T05:45:05.582Z,2.83
2019-01-14T05:47:33.373Z,3.02
2019-01-14T05:49:59.701Z,3.72
2019-01-14T05:52:26.424Z,3.70
2019-01-14T05:54:53.204Z,3.65
2019-01-14T05:57:20.272Z,3.35
2019-01-14T05:59:46.611Z,3.75
2019-01-14T06:02:13.018Z,3.80
2019-01-14T06:04:42.197Z,4.05
2019-01-14T06:07:08.720Z,3.52
2019-01-14T06:09:37.031Z,4.25
2019-01-14T06:12:03.417Z,4.00
2019-01-14T06:14:29.817Z,3.83
2019-01-14T06:16:56.423Z,3.22
2019-01-14T06:19:23.384Z,3.90
2019-01-14T06:21:49.786Z,4.05
2019-01-14T06:24:16.616Z,3.27
2019-01-14T06:26:43.385Z,4.60
2019-01-14T06:29:11.976Z,3.30
2019-01-14T06:31:38.596Z,4.05
2019-01-14T06:34:11.263Z,4.05
2019-01-14T06:36:38.698Z,4.20
2019-01-14T06:39:07.344Z,3.67
2019-01-14T06:41:34.503Z,3.40
2019-01-14T06:44:01.052Z,3.83
2019-01-14T06:46:33.688Z,4.05
2019-01-14T06:49:00.063Z,4.65
2019-01-14T06:51:26.760Z,3.30
2019-01-14T06:53:53.597Z,3.70
2019-01-14T06:56:20.131Z,3.40
2019-01-14T06:58:46.552Z,4.10
2019-01-14T07:01:16.340Z,6.97
2019-01-14T07:03:43.230Z,4.72
2019-01-14T07:06:09.930Z,3.58
2019-01-14T07:08:36.403Z,3.80
2019-01-14T07:11:04.793Z,4.70
2019-01-14T07:13:31.197Z,3.90
2019-01-14T07:15:57.668Z,4.60
2019-01-14T07:18:24.090Z,4.30
2019-01-14T07:20:50.602Z,3.60
2019-01-14T07:23:18.193Z,3.50
2019-01-14T07:25:45.044Z,3.02
2019-01-14T07:28:11.807Z,3.27
2019-01-14T07:30:38.848Z,3.40
2019-01-14T07:33:05.309Z,3.20
2019-01-14T07:35:31.587Z,3.05
2019-01-14T07:37:57.871Z,3.30
2019-01-14T07:40:24.691Z,2.67
2019-01-14T07:42:51.738Z,2.52
2019-01-14T07:45:18.597Z,2.50
2019-01-14T07:47:45.110Z,2.90
2019-01-14T07:50:14.320Z,3.40
2019-01-14T07:52:41.066Z,3.20
2019-01-14T07:55:08.385Z,3.12
2019-01-14T07:57:35.163Z,2.85
2019-01-14T08:00:06.660Z,3.05
2019-01-14T08:02:32.955Z,2.83
2019-01-14T08:04:59.366Z,2.35
2019-01-14T08:07:25.859Z,2.95
2019-01-14T08:09:52.172Z,3.08
2019-01-14T08:12:18.878Z,3.65
2019-01-14T08:14:45.818Z,2.72
2019-01-14T08:17:12.267Z,2.80
2019-01-14T08:19:39.783Z,3.12
2019-01-14T08:22:06.302Z,2.55
2019-01-14T08:24:32.652Z,2.72
2019-01-14T08:26:59.038Z,2.55
2019-01-14T08:29:27.799Z,3.62
2019-01-14T08:31:54.236Z,3.08
2019-01-14T08:34:20.720Z,9.75
2019-01-14T08:36:47.542Z,3.27
2019-01-14T08:39:13.934Z,2.83
2019-01-14T08:41:42.647Z,2.87
2019-01-14T08:44:12.493Z,3.22
2019-01-14T08:46:39.712Z,3.05
2019-01-14T08:49:06.321Z,2.87
2019-01-14T08:51:35.874Z,3.25
2019-01-14T08:54:02.709Z,3.15
2019-01-14T08:56:29.070Z,3.20
2019-01-14T08:58:55.453Z,3.60
2019-01-14T09:01:21.854Z,3.50
2019-01-14T09:03:48.969Z,4.00
2019-01-14T09:06:16.283Z,2.67
2019-01-14T09:09:04.796Z,3.70
2019-01-14T09:11:31.189Z,3.22
2019-01-14T09:13:57.549Z,2.50
2019-01-14T09:16:23.982Z,2.62
2019-01-14T09:18:50.300Z,3.35
2019-01-14T09:21:16.893Z,2.70
2019-01-14T09:23:43.473Z,3.35
2019-01-14T09:26:10.209Z,3.05
2019-01-14T09:28:37.380Z,2.90
2019-01-14T09:31:03.915Z,3.22
2019-01-14T09:33:30.421Z,2.58
2019-01-14T09:35:56.890Z,3.30
2019-01-14T09:38:23.326Z,2.60
2019-01-14T09:40:49.779Z,2.47
2019-01-14T09:43:16.818Z,3.58
2019-01-14T09:45:43.277Z,3.50
2019-01-14T09:48:09.695Z,3.98
2019-01-14T09:50:36.105Z,3.37
2019-01-14T09:53:02.619Z,3.00
2019-01-14T09:55:28.891Z,3.52
2019-01-14T09:57:55.498Z,2.72
2019-01-14T10:00:21.977Z,3.00
2019-01-14T10:02:48.656Z,3.40
2019-01-14T10:05:16.403Z,2.80
2019-01-14T10:07:43.434Z,3.25
2019-01-14T10:10:15.074Z,3.60
2019-01-14T10:12:44.400Z,3.37
2019-01-14T10:15:17.378Z,3.90
2019-01-14T10:17:45.226Z,2.80
2019-01-14T10:20:11.758Z,3.45
2019-01-14T10:22:38.559Z,2.85
2019-01-14T10:25:07.555Z,2.40
2019-01-14T10:27:34.020Z,3.52
2019-01-14T10:30:00.319Z,3.70
2019-01-14T10:32:26.603Z,2.80
2019-01-14T10:34:53.086Z,3.08
2019-01-14T10:37:22.858Z,2.70
2019-01-14T10:39:48.072Z,3.25
2019-01-14T10:42:14.539Z,3.02
2019-01-14T10:44:41.145Z,3.20
2019-01-14T10:47:07.978Z,2.67
2019-01-14T10:49:34.768Z,3.40
2019-01-14T10:52:01.298Z,3.02
2019-01-14T10:54:27.724Z,3.10
2019-01-14T10:56:57.082Z,3.10
2019-01-14T10:59:23.680Z,3.95
2019-01-14T11:01:50.394Z,3.70
2019-01-14T11:04:17.293Z,2.77
2019-01-14T11:06:43.833Z,2.40
2019-01-14T11:09:10.553Z,2.37
2019-01-14T11:11:37.059Z,3.10
2019-01-14T11:14:03.523Z,3.08
2019-01-14T11:16:29.921Z,2.60
2019-01-14T11:18:56.196Z,2.75
2019-01-14T11:21:22.611Z,2.00
2019-01-14T11:23:49.067Z,2.25
2019-01-14T11:26:15.574Z,2.62
2019-01-14T11:28:44.670Z,1.70
2019-01-14T11:31:11.182Z,3.00
2019-01-14T11:33:39.154Z,2.20
2019-01-14T11:36:05.794Z,2.30
2019-01-14T11:38:47.019Z,2.27
2019-01-14T11:41:13.950Z,2.33
2019-01-14T11:43:41.153Z,2.05
2019-01-14T11:46:09.265Z,2.33
2019-01-14T11:48:35.753Z,2.52
2019-01-14T11:51:14.966Z,1.60
2019-01-14T11:53:44.415Z,3.08
2019-01-14T11:56:16.903Z,1.90
2019-01-14T11:58:44.298Z,2.47
2019-01-14T12:01:12.439Z,2.30
2019-01-14T12:03:41.019Z,1.98
2019-01-14T12:06:09.156Z,1.85
2019-01-14T12:08:41.702Z,2.00
2019-01-14T12:11:10.195Z,2.10
2019-01-14T12:13:36.619Z,2.22
2019-01-14T12:16:08.387Z,2.30
2019-01-14T12:18:34.736Z,3.15
2019-01-14T12:21:01.008Z,2.80
2019-01-14T12:23:28.740Z,2.98
2019-01-14T12:25:57.362Z,2.80
2019-01-14T12:28:29.587Z,2.95
2019-01-14T12:31:01.535Z,2.27
2019-01-14T12:33:29.141Z,2.87
2019-01-14T12:36:07.760Z,2.20
2019-01-14T12:38:31.687Z,2.30
2019-01-14T12:41:01.582Z,2.08
2019-01-14T12:43:57.779Z,2.67
2019-01-14T12:46:43.887Z,2.40
2019-01-14T12:49:11.048Z,3.27
2019-01-14T12:51:37.710Z,2.70
2019-01-14T12:54:04.205Z,3.47
2019-01-14T12:56:30.833Z,2.80
2019-01-14T12:58:57.635Z,2.83
2019-01-14T13:01:24.557Z,2.58
2019-01-14T13:03:50.984Z,3.30
2019-01-14T13:06:17.808Z,2.70
2019-01-14T13:08:44.718Z,3.70
2019-01-14T13:11:11.281Z,2.55
2019-01-14T13:13:37.889Z,2.77
2019-01-14T13:16:04.474Z,2.10
2019-01-14T13:18:30.906Z,3.15
2019-01-14T13:20:57.438Z,2.50
2019-01-14T13:23:24.502Z,2.58
2019-01-14T13:25:51.357Z,2.60
2019-01-14T13:28:18.352Z,3.25
2019-01-14T13:30:45.374Z,2.40
2019-01-14T13:33:12.014Z,2.52
2019-01-14T13:35:38.689Z,2.60
2019-01-14T13:38:08.337Z,3.58
2019-01-14T13:40:34.664Z,2.58
2019-01-14T13:43:01.544Z,2.37
2019-01-14T13:45:27.943Z,2.95
2019-01-14T13:47:54.601Z,2.40
2019-01-14T13:50:25.442Z,2.22
2019-01-14T13:52:51.769Z,2.87
2019-01-14T13:55:19.386Z,2.80
2019-01-14T13:57:45.992Z,3.50
2019-01-14T14:00:15.578Z,2.85
2019-01-14T14:02:48.153Z,3.25
2019-01-14T14:05:15.666Z,3.90
2019-01-14T14:07:43.066Z,3.27
2019-01-14T14:10:13.357Z,2.50
2019-01-14T14:12:39.977Z,3.17
2019-01-14T14:15:09.978Z,2.72
2019-01-14T14:17:36.386Z,3.05
2019-01-14T14:20:07.114Z,2.92
2019-01-14T14:22:33.652Z,2.72
2019-01-14T14:24:59.925Z,2.92
2019-01-14T14:27:29.353Z,3.20
2019-01-14T14:29:56.332Z,3.02
2019-01-14T14:32:23.638Z,3.15
2019-01-14T14:34:50.583Z,3.00
2019-01-14T14:37:17.356Z,4.20
2019-01-14T14:39:48.506Z,4.75
2019-01-14T14:42:12.227Z,3.17
2019-01-14T14:44:39.065Z,3.47
2019-01-14T14:47:07.019Z,3.45
2019-01-14T14:49:33.362Z,3.45
2019-01-14T14:51:59.729Z,3.67
2019-01-14T14:54:25.979Z,3.20
2019-01-14T14:56:52.968Z,3.45
2019-01-14T14:59:19.550Z,3.77
2019-01-14T15:01:46.532Z,3.55
2019-01-14T15:04:13.868Z,3.10
2019-01-14T15:06:40.843Z,3.52
2019-01-14T15:09:08.552Z,3.70
2019-01-14T15:11:38.368Z,3.08
2019-01-14T15:14:04.851Z,3.10
2019-01-14T15:16:31.258Z,2.98
2019-01-14T15:18:57.798Z,3.45
2019-01-14T15:21:24.086Z,5.10
2019-01-14T15:23:51.208Z,3.17
2019-01-14T15:26:21.481Z,4.20
2019-01-14T15:28:48.429Z,2.85
2019-01-14T15:31:15.459Z,2.83
2019-01-14T15:33:42.229Z,3.10
2019-01-14T15:36:08.683Z,3.35
2019-01-14T15:38:34.996Z,3.90
2019-01-14T15:41:04.782Z,3.60
2019-01-14T15:43:31.947Z,3.65
2019-01-14T15:45:58.542Z,3.30
2019-01-14T15:48:25.313Z,2.92
2019-01-14T15:50:51.546Z,3.10
2019-01-14T15:53:18.090Z,3.75
2019-01-14T15:55:44.620Z,3.40
2019-01-14T15:58:11.079Z,2.92
2019-01-14T16:03:29.646Z,3.37
2019-01-14T16:05:59.040Z,3.33
2019-01-14T16:08:25.308Z,3.72
2019-01-14T16:10:52.032Z,3.80
2019-01-14T16:13:19.688Z,2.75
2019-01-14T16:15:45.992Z,3.47
2019-01-14T16:18:12.556Z,3.25
2019-01-14T16:20:39.747Z,3.20
2019-01-14T16:23:06.985Z,3.55
2019-01-14T16:25:33.748Z,3.50
2019-01-14T16:28:00.075Z,3.10
2019-01-14T16:30:27.065Z,2.83
2019-01-14T16:32:53.572Z,2.50
2019-01-14T16:35:31.722Z,3.50
2019-01-14T16:37:58.641Z,2.80
2019-01-14T16:40:25.547Z,2.95
2019-01-14T16:42:56.232Z,3.50
2019-01-14T16:45:23.583Z,2.80
2019-01-14T16:47:51.254Z,2.67
2019-01-14T16:50:17.845Z,3.37
2019-01-14T16:52:44.219Z,3.58
2019-01-14T16:55:13.783Z,2.70
2019-01-14T16:57:41.609Z,3.20
2019-01-14T17:00:17.425Z,2.52
2019-01-14T17:02:46.174Z,2.50
2019-01-14T17:05:15.378Z,3.00
2019-01-14T17:07:43.864Z,2.77
2019-01-14T17:10:15.325Z,5.60
2019-01-14T17:12:44.076Z,3.27
2019-01-14T17:15:15.091Z,3.22
2019-01-14T17:17:44.057Z,3.00
2019-01-14T17:20:18.365Z,2.92
2019-01-14T17:22:46.563Z,3.00
2019-01-14T17:25:16.189Z,3.40
2019-01-14T17:27:46.493Z,2.92
2019-01-14T17:30:15.778Z,3.50
2019-01-14T17:33:04.358Z,2.77
2019-01-14T17:35:30.663Z,4.45
2019-01-14T17:38:01.246Z,3.65
2019-01-14T17:40:32.527Z,3.58
2019-01-14T17:42:55.881Z,3.22
2019-01-14T17:45:22.149Z,3.15
2019-01-14T17:47:48.747Z,2.60
2019-01-14T17:50:18.047Z,4.00
2019-01-14T17:52:45.377Z,3.17
2019-01-14T17:55:12.999Z,3.25
2019-01-14T17:57:40.020Z,2.58
2019-01-14T18:00:10.695Z,2.90
2019-01-14T18:02:37.414Z,3.50
2019-01-14T18:05:04.903Z,3.70
2019-01-14T18:07:31.206Z,3.45
2019-01-14T18:09:57.560Z,4.50
2019-01-14T18:12:23.860Z,3.15
2019-01-14T18:14:50.253Z,3.90
2019-01-14T18:17:16.911Z,4.30
2019-01-14T18:19:43.423Z,2.70
2019-01-14T18:22:09.990Z,3.00
2019-01-14T18:24:36.429Z,2.85
2019-01-14T18:27:03.240Z,2.87
2019-01-14T18:29:29.573Z,3.17
2019-01-14T18:31:56.834Z,2.47
2019-01-14T18:34:23.212Z,2.87
2019-01-14T18:36:53.555Z,2.70
2019-01-14T18:39:20.736Z,3.30
2019-01-14T18:47:39.026Z,2.60
2019-01-14T18:50:10.677Z,3.40
2019-01-14T18:52:37.804Z,3.62
2019-01-14T18:55:07.896Z,3.85
2019-01-14T18:57:34.272Z,2.80
2019-01-14T19:00:00.568Z,2.80
2019-01-14T19:02:26.954Z,3.00
2019-01-14T19:04:53.378Z,3.40
2019-01-14T19:07:22.875Z,4.37
2019-01-14T19:09:49.319Z,3.12
2019-01-14T19:12:16.258Z,3.08
2019-01-14T19:14:43.381Z,3.12
2019-01-14T19:17:09.804Z,2.95
2019-01-14T19:19:36.907Z,3.87
2019-01-14T19:22:04.225Z,3.90
2019-01-14T19:24:31.935Z,2.80
2019-01-14T19:26:58.261Z,3.85
2019-01-14T19:29:24.559Z,3.40
2019-01-14T19:31:51.341Z,3.05
2019-01-14T19:34:20.996Z,2.58
2019-01-14T19:36:47.550Z,2.85
2019-01-14T19:39:14.332Z,3.10
2019-01-14T19:41:41.132Z,3.20
2019-01-14T19:44:07.492Z,3.55
2019-01-14T19:46:35.359Z,3.42
2019-01-14T19:49:01.846Z,3.25
2019-01-14T19:51:28.128Z,3.30
2019-01-14T19:53:54.682Z,3.12
2019-01-14T19:56:21.036Z,2.92
2019-01-14T19:58:47.705Z,3.55
2019-01-14T20:01:14.245Z,3.80
2019-01-14T20:03:40.498Z,4.17
2019-01-14T20:06:07.425Z,3.35
2019-01-14T20:08:34.111Z,3.20
2019-01-14T20:11:09.006Z,3.60
2019-01-14T20:13:30.408Z,3.22
2019-01-14T20:15:56.755Z,3.83
2019-01-14T20:18:23.075Z,3.35
2019-01-14T20:20:50.075Z,3.60
2019-01-14T20:23:16.449Z,3.55
2019-01-14T20:25:43.339Z,3.62
2019-01-14T20:28:09.855Z,3.80
2019-01-14T20:30:37.933Z,3.80
2019-01-14T20:33:06.089Z,4.60
2019-01-14T20:35:32.984Z,6.15
2019-01-14T20:37:59.270Z,3.95
2019-01-14T20:40:25.487Z,3.30
2019-01-14T20:42:51.901Z,3.52
2019-01-14T20:45:18.397Z,3.25
2019-01-14T20:47:44.943Z,4.22
2019-01-14T20:50:14.000Z,3.55
2019-01-14T20:52:41.019Z,3.27
2019-01-14T20:55:08.047Z,4.03
2019-01-14T20:57:35.019Z,4.55
2019-01-14T21:00:01.452Z,3.72
2019-01-14T21:02:28.457Z,3.25
2019-01-14T21:04:55.096Z,4.40
2019-01-14T21:07:21.388Z,4.35
2019-01-14T21:09:47.741Z,3.52
2019-01-14T21:12:15.061Z,4.05
2019-01-14T21:14:41.559Z,3.37
2019-01-14T21:17:08.085Z,4.05
2019-01-14T21:19:34.741Z,3.75
2019-01-14T21:22:01.242Z,4.35
2019-01-14T21:24:34.346Z,4.85
2019-01-14T21:27:01.014Z,3.02
2019-01-14T21:29:27.422Z,3.35
2019-01-14T21:31:53.782Z,3.00
2019-01-14T21:34:20.447Z,3.85
2019-01-14T21:36:47.202Z,3.70
2019-01-14T21:39:13.891Z,3.80
2019-01-14T21:41:41.730Z,3.00
2019-01-14T21:44:11.112Z,3.12
2019-01-14T21:46:39.102Z,3.47
2019-01-14T21:49:05.655Z,4.20
2019-01-14T21:51:33.828Z,3.75
2019-01-14T21:54:00.295Z,3.60
2019-01-14T21:56:26.571Z,3.67
2019-01-14T21:58:53.038Z,3.40
2019-01-14T22:01:19.604Z,3.45
2019-01-14T22:03:45.897Z,3.40
2019-01-14T22:06:12.588Z,3.80
2019-01-14T22:08:39.216Z,3.17
2019-01-14T22:11:05.888Z,3.40
2019-01-14T22:13:32.116Z,3.05
2019-01-14T22:15:58.794Z,2.90
2019-01-14T22:18:25.191Z,3.55
2019-01-14T22:20:51.883Z,2.92
2019-01-14T22:23:18.286Z,3.67
2019-01-14T22:25:44.747Z,3.00
2019-01-14T22:28:11.784Z,3.42
2019-01-14T22:30:38.322Z,2.87
2019-01-14T22:33:05.325Z,3.10
2019-01-14T22:35:32.419Z,3.62
2019-01-14T22:37:58.808Z,3.40
2019-01-14T22:40:25.081Z,3.55
2019-01-14T22:42:51.998Z,3.40
2019-01-14T22:45:18.740Z,3.95
2019-01-14T22:47:45.319Z,3.50
2019-01-14T22:50:14.198Z,4.25
2019-01-14T22:52:41.121Z,4.17
2019-01-14T22:55:08.148Z,3.50
2019-01-14T22:57:34.660Z,3.90
2019-01-14T23:00:02.437Z,3.80
2019-01-14T23:02:28.835Z,3.70
2019-01-14T23:04:55.286Z,3.08
2019-01-14T23:07:22.001Z,3.65
2019-01-14T23:09:48.594Z,3.02
2019-01-14T23:12:15.723Z,3.67
2019-01-14T23:14:42.135Z,3.10
2019-01-14T23:17:09.744Z,5.03
2019-01-14T23:19:36.373Z,3.72
2019-01-14T23:22:03.088Z,3.27
2019-01-14T23:24:29.815Z,3.20
2019-01-14T23:26:56.189Z,3.40
2019-01-14T23:29:23.001Z,3.95
2019-01-14T23:31:49.881Z,3.95
2019-01-14T23:34:16.251Z,3.47
2019-01-14T23:36:42.607Z,3.37
2019-01-14T23:39:09.201Z,3.12
2019-01-14T23:41:35.865Z,3.35
2019-01-14T23:44:02.749Z,3.90
2019-01-14T23:46:29.067Z,3.27
2019-01-14T23:48:55.418Z,3.25
2019-01-14T23:51:21.811Z,4.05
2019-01-14T23:53:49.641Z,3.12
2019-01-14T23:56:16.630Z,3.40
2019-01-14T23:58:43.114Z,3.92
